sensor_id;sensor_type;location;lat;lon;timestamp;P1;durP1;ratioP1;P2;durP2;ratioP2
24145;SDS011;12308;50.948;4.706;2023-02-14T00:01:42;59.38;;;31.23;;
24145;SDS011;12308;50.948;4.706;2023-02-14T00:04:09;65.35;;;31.20;;
24145;SDS011;12308;50.948;4.706;2023-02-14T00:06:35;60.13;;;31.33;;
24145;SDS011;12308;50.948;4.706;2023-02-14T00:09:12;66.65;;;30.77;;
24145;SDS011;12308;50.948;4.706;2023-02-14T00:11:40;61.90;;;30.63;;
24145;SDS011;12308;50.948;4.706;2023-02-14T00:14:06;64.75;;;29.90;;
24145;SDS011;12308;50.948;4.706;2023-02-14T00:16:51;65.05;;;31.63;;
24145;SDS011;12308;50.948;4.706;2023-02-14T00:19:17;62.05;;;31.00;;
24145;SDS011;12308;50.948;4.706;2023-02-14T00:21:43;62.22;;;31.70;;
24145;SDS011;12308;50.948;4.706;2023-02-14T00:24:14;59.83;;;30.50;;
24145;SDS011;12308;50.948;4.706;2023-02-14T00:26:43;66.32;;;32.15;;
24145;SDS011;12308;50.948;4.706;2023-02-14T00:29:15;64.60;;;31.88;;
24145;SDS011;12308;50.948;4.706;2023-02-14T00:31:46;64.35;;;32.13;;
24145;SDS011;12308;50.948;4.706;2023-02-14T00:34:12;60.65;;;31.25;;
24145;SDS011;12308;50.948;4.706;2023-02-14T00:36:39;53.53;;;28.63;;
24145;SDS011;12308;50.948;4.706;2023-02-14T00:39:06;61.25;;;29.85;;
24145;SDS011;12308;50.948;4.706;2023-02-14T00:41:33;64.03;;;29.85;;
24145;SDS011;12308;50.948;4.706;2023-02-14T00:43:59;63.03;;;31.77;;
24145;SDS011;12308;50.948;4.706;2023-02-14T00:46:25;57.85;;;30.15;;
24145;SDS011;12308;50.948;4.706;2023-02-14T00:48:51;62.92;;;31.05;;
24145;SDS011;12308;50.948;4.706;2023-02-14T00:51:17;61.35;;;31.88;;
24145;SDS011;12308;50.948;4.706;2023-02-14T00:53:44;54.38;;;28.80;;
24145;SDS011;12308;50.948;4.706;2023-02-14T00:56:12;58.90;;;29.63;;
24145;SDS011;12308;50.948;4.706;2023-02-14T00:58:38;59.75;;;30.85;;
24145;SDS011;12308;50.948;4.706;2023-02-14T01:01:04;66.43;;;31.00;;
24145;SDS011;12308;50.948;4.706;2023-02-14T01:03:30;62.10;;;30.83;;
24145;SDS011;12308;50.948;4.706;2023-02-14T01:05:56;64.97;;;32.10;;
24145;SDS011;12308;50.948;4.706;2023-02-14T01:08:22;60.50;;;30.60;;
24145;SDS011;12308;50.948;4.706;2023-02-14T01:10:48;58.45;;;29.90;;
24145;SDS011;12308;50.948;4.706;2023-02-14T01:13:14;60.20;;;31.23;;
24145;SDS011;12308;50.948;4.706;2023-02-14T01:15:42;62.20;;;29.58;;
24145;SDS011;12308;50.948;4.706;2023-02-14T01:18:10;63.38;;;30.48;;
24145;SDS011;12308;50.948;4.706;2023-02-14T01:20:36;56.97;;;31.02;;
24145;SDS011;12308;50.948;4.706;2023-02-14T01:23:01;61.28;;;31.17;;
24145;SDS011;12308;50.948;4.706;2023-02-14T01:25:27;56.58;;;31.30;;
24145;SDS011;12308;50.948;4.706;2023-02-14T01:27:53;62.17;;;30.25;;
24145;SDS011;12308;50.948;4.706;2023-02-14T01:30:19;57.83;;;29.77;;
24145;SDS011;12308;50.948;4.706;2023-02-14T01:32:45;56.53;;;29.33;;
24145;SDS011;12308;50.948;4.706;2023-02-14T01:35:11;58.08;;;30.15;;
24145;SDS011;12308;50.948;4.706;2023-02-14T01:37:36;61.33;;;31.13;;
24145;SDS011;12308;50.948;4.706;2023-02-14T01:40:03;62.05;;;31.75;;
24145;SDS011;12308;50.948;4.706;2023-02-14T01:42:31;61.35;;;31.73;;
24145;SDS011;12308;50.948;4.706;2023-02-14T01:47:29;68.32;;;31.83;;
24145;SDS011;12308;50.948;4.706;2023-02-14T01:50:07;65.88;;;31.23;;
24145;SDS011;12308;50.948;4.706;2023-02-14T01:52:40;63.35;;;31.17;;
24145;SDS011;12308;50.948;4.706;2023-02-14T01:55:12;70.72;;;32.55;;
24145;SDS011;12308;50.948;4.706;2023-02-14T01:58:03;60.63;;;31.20;;
24145;SDS011;12308;50.948;4.706;2023-02-14T02:00:33;62.22;;;31.55;;
24145;SDS011;12308;50.948;4.706;2023-02-14T02:03:19;64.88;;;31.73;;
24145;SDS011;12308;50.948;4.706;2023-02-14T02:05:46;75.75;;;32.55;;
24145;SDS011;12308;50.948;4.706;2023-02-14T02:08:15;73.10;;;31.27;;
24145;SDS011;12308;50.948;4.706;2023-02-14T02:10:41;71.30;;;31.55;;
24145;SDS011;12308;50.948;4.706;2023-02-14T02:13:07;69.45;;;31.45;;
24145;SDS011;12308;50.948;4.706;2023-02-14T02:15:41;67.30;;;30.95;;
24145;SDS011;12308;50.948;4.706;2023-02-14T02:21:25;64.38;;;31.85;;
24145;SDS011;12308;50.948;4.706;2023-02-14T02:24:15;69.68;;;30.92;;
24145;SDS011;12308;50.948;4.706;2023-02-14T02:27:05;67.85;;;30.98;;
24145;SDS011;12308;50.948;4.706;2023-02-14T02:46:03;63.13;;;31.13;;
24145;SDS011;12308;50.948;4.706;2023-02-14T02:52:03;64.80;;;32.08;;
24145;SDS011;12308;50.948;4.706;2023-02-14T02:54:57;60.97;;;30.00;;
24145;SDS011;12308;50.948;4.706;2023-02-14T02:57:32;59.65;;;30.13;;
24145;SDS011;12308;50.948;4.706;2023-02-14T03:00:02;64.93;;;30.45;;
24145;SDS011;12308;50.948;4.706;2023-02-14T03:02:31;63.03;;;29.52;;
24145;SDS011;12308;50.948;4.706;2023-02-14T03:05:20;71.97;;;32.63;;
24145;SDS011;12308;50.948;4.706;2023-02-14T03:07:47;76.07;;;33.95;;
24145;SDS011;12308;50.948;4.706;2023-02-14T03:18:49;65.75;;;30.75;;
24145;SDS011;12308;50.948;4.706;2023-02-14T03:37:16;66.65;;;31.77;;
24145;SDS011;12308;50.948;4.706;2023-02-14T03:45:19;84.22;;;33.50;;
24145;SDS011;12308;50.948;4.706;2023-02-14T03:47:53;70.72;;;30.85;;
24145;SDS011;12308;50.948;4.706;2023-02-14T03:50:22;75.95;;;34.15;;
24145;SDS011;12308;50.948;4.706;2023-02-14T03:52:49;71.45;;;32.75;;
24145;SDS011;12308;50.948;4.706;2023-02-14T03:55:19;72.40;;;33.47;;
24145;SDS011;12308;50.948;4.706;2023-02-14T03:58:05;77.07;;;34.33;;
24145;SDS011;12308;50.948;4.706;2023-02-14T04:00:40;76.70;;;35.15;;
24145;SDS011;12308;50.948;4.706;2023-02-14T04:03:08;80.70;;;34.92;;
24145;SDS011;12308;50.948;4.706;2023-02-14T04:05:37;72.57;;;33.47;;
24145;SDS011;12308;50.948;4.706;2023-02-14T04:08:08;79.95;;;34.38;;
24145;SDS011;12308;50.948;4.706;2023-02-14T04:10:36;84.35;;;35.47;;
24145;SDS011;12308;50.948;4.706;2023-02-14T04:13:04;76.43;;;33.83;;
24145;SDS011;12308;50.948;4.706;2023-02-14T04:15:29;76.43;;;34.38;;
24145;SDS011;12308;50.948;4.706;2023-02-14T04:17:55;71.18;;;32.80;;
24145;SDS011;12308;50.948;4.706;2023-02-14T04:20:39;73.95;;;33.10;;
24145;SDS011;12308;50.948;4.706;2023-02-14T04:23:05;74.10;;;34.10;;
24145;SDS011;12308;50.948;4.706;2023-02-14T04:25:31;75.43;;;33.95;;
24145;SDS011;12308;50.948;4.706;2023-02-14T04:27:56;75.20;;;35.38;;
24145;SDS011;12308;50.948;4.706;2023-02-14T04:30:22;75.10;;;32.70;;
24145;SDS011;12308;50.948;4.706;2023-02-14T04:32:48;76.38;;;34.53;;
24145;SDS011;12308;50.948;4.706;2023-02-14T04:35:14;80.18;;;34.92;;
24145;SDS011;12308;50.948;4.706;2023-02-14T04:37:40;76.40;;;33.92;;
24145;SDS011;12308;50.948;4.706;2023-02-14T04:40:06;74.43;;;34.67;;
24145;SDS011;12308;50.948;4.706;2023-02-14T04:42:32;76.22;;;35.15;;
24145;SDS011;12308;50.948;4.706;2023-02-14T04:44:58;82.55;;;35.83;;
24145;SDS011;12308;50.948;4.706;2023-02-14T04:47:23;89.63;;;34.72;;
24145;SDS011;12308;50.948;4.706;2023-02-14T04:49:49;87.68;;;37.33;;
24145;SDS011;12308;50.948;4.706;2023-02-14T04:52:15;85.10;;;36.45;;
24145;SDS011;12308;50.948;4.706;2023-02-14T04:54:40;86.85;;;35.33;;
24145;SDS011;12308;50.948;4.706;2023-02-14T04:57:06;75.22;;;33.75;;
24145;SDS011;12308;50.948;4.706;2023-02-14T04:59:32;77.22;;;34.80;;
24145;SDS011;12308;50.948;4.706;2023-02-14T05:01:57;78.18;;;35.92;;
24145;SDS011;12308;50.948;4.706;2023-02-14T05:04:23;74.10;;;33.92;;
24145;SDS011;12308;50.948;4.706;2023-02-14T05:06:49;87.00;;;36.13;;
24145;SDS011;12308;50.948;4.706;2023-02-14T05:09:14;85.95;;;36.47;;
24145;SDS011;12308;50.948;4.706;2023-02-14T05:11:40;83.07;;;35.50;;
24145;SDS011;12308;50.948;4.706;2023-02-14T05:14:06;78.22;;;34.70;;
24145;SDS011;12308;50.948;4.706;2023-02-14T05:16:32;79.95;;;36.10;;
24145;SDS011;12308;50.948;4.706;2023-02-14T05:18:57;70.85;;;32.92;;
24145;SDS011;12308;50.948;4.706;2023-02-14T05:21:23;76.78;;;34.97;;
24145;SDS011;12308;50.948;4.706;2023-02-14T05:23:49;71.28;;;33.20;;
24145;SDS011;12308;50.948;4.706;2023-02-14T05:26:15;73.00;;;32.63;;
24145;SDS011;12308;50.948;4.706;2023-02-14T05:28:40;69.78;;;32.17;;
24145;SDS011;12308;50.948;4.706;2023-02-14T05:31:07;69.78;;;33.22;;
24145;SDS011;12308;50.948;4.706;2023-02-14T05:33:33;77.32;;;32.92;;
24145;SDS011;12308;50.948;4.706;2023-02-14T05:35:59;74.38;;;33.65;;
24145;SDS011;12308;50.948;4.706;2023-02-14T05:38:27;74.05;;;35.13;;
24145;SDS011;12308;50.948;4.706;2023-02-14T05:40:53;72.32;;;33.55;;
24145;SDS011;12308;50.948;4.706;2023-02-14T05:43:19;73.35;;;33.88;;
24145;SDS011;12308;50.948;4.706;2023-02-14T05:45:45;83.90;;;38.53;;
24145;SDS011;12308;50.948;4.706;2023-02-14T05:48:12;86.30;;;39.22;;
24145;SDS011;12308;50.948;4.706;2023-02-14T05:50:37;81.85;;;39.78;;
24145;SDS011;12308;50.948;4.706;2023-02-14T05:53:03;78.28;;;36.40;;
24145;SDS011;12308;50.948;4.706;2023-02-14T05:55:29;72.45;;;34.85;;
24145;SDS011;12308;50.948;4.706;2023-02-14T05:57:55;71.72;;;34.10;;
24145;SDS011;12308;50.948;4.706;2023-02-14T06:00:21;74.25;;;34.63;;
24145;SDS011;12308;50.948;4.706;2023-02-14T06:02:48;74.40;;;34.38;;
24145;SDS011;12308;50.948;4.706;2023-02-14T06:05:13;77.70;;;33.85;;
24145;SDS011;12308;50.948;4.706;2023-02-14T06:07:41;75.10;;;34.67;;
24145;SDS011;12308;50.948;4.706;2023-02-14T06:10:09;68.45;;;32.33;;
24145;SDS011;12308;50.948;4.706;2023-02-14T06:12:36;67.38;;;31.90;;
24145;SDS011;12308;50.948;4.706;2023-02-14T06:15:02;70.10;;;31.50;;
24145;SDS011;12308;50.948;4.706;2023-02-14T06:17:28;73.20;;;33.05;;
24145;SDS011;12308;50.948;4.706;2023-02-14T06:19:54;78.53;;;33.13;;
24145;SDS011;12308;50.948;4.706;2023-02-14T06:22:19;71.00;;;33.45;;
24145;SDS011;12308;50.948;4.706;2023-02-14T06:24:45;68.60;;;32.17;;
24145;SDS011;12308;50.948;4.706;2023-02-14T06:27:11;70.32;;;31.98;;
24145;SDS011;12308;50.948;4.706;2023-02-14T06:29:36;69.85;;;33.35;;
24145;SDS011;12308;50.948;4.706;2023-02-14T06:32:02;69.60;;;32.55;;
24145;SDS011;12308;50.948;4.706;2023-02-14T06:34:31;79.32;;;32.45;;
24145;SDS011;12308;50.948;4.706;2023-02-14T06:36:57;79.70;;;34.85;;
24145;SDS011;12308;50.948;4.706;2023-02-14T06:39:23;71.85;;;33.38;;
24145;SDS011;12308;50.948;4.706;2023-02-14T06:41:49;70.75;;;33.58;;
24145;SDS011;12308;50.948;4.706;2023-02-14T06:44:15;74.75;;;33.22;;
24145;SDS011;12308;50.948;4.706;2023-02-14T06:46:40;85.18;;;34.45;;
24145;SDS011;12308;50.948;4.706;2023-02-14T06:49:06;66.82;;;33.33;;
24145;SDS011;12308;50.948;4.706;2023-02-14T06:51:33;68.57;;;33.03;;
24145;SDS011;12308;50.948;4.706;2023-02-14T06:53:58;76.35;;;34.08;;
24145;SDS011;12308;50.948;4.706;2023-02-14T06:56:24;67.10;;;33.72;;
24145;SDS011;12308;50.948;4.706;2023-02-14T06:58:50;68.75;;;32.22;;
24145;SDS011;12308;50.948;4.706;2023-02-14T07:01:15;72.38;;;34.50;;
24145;SDS011;12308;50.948;4.706;2023-02-14T07:03:41;65.75;;;32.33;;
24145;SDS011;12308;50.948;4.706;2023-02-14T07:06:07;67.00;;;32.47;;
24145;SDS011;12308;50.948;4.706;2023-02-14T07:08:32;69.78;;;32.55;;
24145;SDS011;12308;50.948;4.706;2023-02-14T07:10:58;74.15;;;33.17;;
24145;SDS011;12308;50.948;4.706;2023-02-14T07:13:24;72.97;;;33.50;;
24145;SDS011;12308;50.948;4.706;2023-02-14T07:15:49;70.22;;;31.77;;
24145;SDS011;12308;50.948;4.706;2023-02-14T07:18:15;74.57;;;33.47;;
24145;SDS011;12308;50.948;4.706;2023-02-14T07:20:41;71.38;;;30.85;;
24145;SDS011;12308;50.948;4.706;2023-02-14T07:23:08;66.07;;;31.92;;
24145;SDS011;12308;50.948;4.706;2023-02-14T07:25:34;64.32;;;30.90;;
24145;SDS011;12308;50.948;4.706;2023-02-14T07:27:59;65.15;;;31.30;;
24145;SDS011;12308;50.948;4.706;2023-02-14T07:30:26;64.88;;;31.35;;
24145;SDS011;12308;50.948;4.706;2023-02-14T07:32:51;66.70;;;31.15;;
24145;SDS011;12308;50.948;4.706;2023-02-14T07:35:17;75.10;;;32.38;;
24145;SDS011;12308;50.948;4.706;2023-02-14T07:37:43;62.15;;;29.60;;
24145;SDS011;12308;50.948;4.706;2023-02-14T07:40:09;65.57;;;31.17;;
24145;SDS011;12308;50.948;4.706;2023-02-14T07:42:35;67.07;;;31.10;;
24145;SDS011;12308;50.948;4.706;2023-02-14T07:45:00;61.15;;;30.48;;
24145;SDS011;12308;50.948;4.706;2023-02-14T07:47:28;66.80;;;31.35;;
24145;SDS011;12308;50.948;4.706;2023-02-14T07:49:54;69.45;;;32.63;;
24145;SDS011;12308;50.948;4.706;2023-02-14T07:52:19;70.80;;;32.75;;
24145;SDS011;12308;50.948;4.706;2023-02-14T07:54:45;68.78;;;31.80;;
24145;SDS011;12308;50.948;4.706;2023-02-14T07:57:10;70.05;;;31.80;;
24145;SDS011;12308;50.948;4.706;2023-02-14T07:59:36;70.30;;;33.10;;
24145;SDS011;12308;50.948;4.706;2023-02-14T08:02:02;70.82;;;34.30;;
24145;SDS011;12308;50.948;4.706;2023-02-14T08:04:27;67.70;;;33.45;;
24145;SDS011;12308;50.948;4.706;2023-02-14T08:06:53;71.43;;;33.15;;
24145;SDS011;12308;50.948;4.706;2023-02-14T08:09:19;68.32;;;33.55;;
24145;SDS011;12308;50.948;4.706;2023-02-14T08:11:52;78.00;;;37.28;;
24145;SDS011;12308;50.948;4.706;2023-02-14T08:14:37;76.70;;;35.60;;
24145;SDS011;12308;50.948;4.706;2023-02-14T08:17:03;71.82;;;35.70;;
24145;SDS011;12308;50.948;4.706;2023-02-14T08:19:31;77.38;;;37.05;;
24145;SDS011;12308;50.948;4.706;2023-02-14T08:21:57;80.28;;;39.00;;
24145;SDS011;12308;50.948;4.706;2023-02-14T08:24:23;82.85;;;39.35;;
24145;SDS011;12308;50.948;4.706;2023-02-14T08:26:49;76.40;;;38.25;;
24145;SDS011;12308;50.948;4.706;2023-02-14T08:29:15;80.28;;;38.92;;
24145;SDS011;12308;50.948;4.706;2023-02-14T08:31:41;76.57;;;39.03;;
24145;SDS011;12308;50.948;4.706;2023-02-14T08:34:06;82.50;;;40.28;;
24145;SDS011;12308;50.948;4.706;2023-02-14T08:36:32;82.28;;;40.70;;
24145;SDS011;12308;50.948;4.706;2023-02-14T08:38:59;85.95;;;41.50;;
24145;SDS011;12308;50.948;4.706;2023-02-14T08:41:25;83.32;;;41.45;;
24145;SDS011;12308;50.948;4.706;2023-02-14T08:43:50;85.85;;;40.80;;
24145;SDS011;12308;50.948;4.706;2023-02-14T08:46:16;88.45;;;42.92;;
24145;SDS011;12308;50.948;4.706;2023-02-14T08:48:42;95.13;;;42.30;;
24145;SDS011;12308;50.948;4.706;2023-02-14T08:51:09;88.07;;;43.03;;
24145;SDS011;12308;50.948;4.706;2023-02-14T08:53:37;89.30;;;42.63;;
24145;SDS011;12308;50.948;4.706;2023-02-14T08:56:04;94.45;;;43.05;;
24145;SDS011;12308;50.948;4.706;2023-02-14T08:58:31;95.20;;;43.45;;
24145;SDS011;12308;50.948;4.706;2023-02-14T09:00:57;93.80;;;44.83;;
24145;SDS011;12308;50.948;4.706;2023-02-14T09:03:23;101.55;;;46.40;;
24145;SDS011;12308;50.948;4.706;2023-02-14T09:05:49;97.80;;;46.53;;
24145;SDS011;12308;50.948;4.706;2023-02-14T09:08:14;101.80;;;46.92;;
24145;SDS011;12308;50.948;4.706;2023-02-14T09:10:40;94.35;;;46.28;;
24145;SDS011;12308;50.948;4.706;2023-02-14T09:13:07;93.68;;;45.97;;
24145;SDS011;12308;50.948;4.706;2023-02-14T09:15:32;95.50;;;44.78;;
24145;SDS011;12308;50.948;4.706;2023-02-14T09:17:58;98.10;;;44.22;;
24145;SDS011;12308;50.948;4.706;2023-02-14T09:20:24;92.82;;;43.83;;
24145;SDS011;12308;50.948;4.706;2023-02-14T09:22:50;99.07;;;45.45;;
24145;SDS011;12308;50.948;4.706;2023-02-14T09:25:18;96.10;;;45.55;;
24145;SDS011;12308;50.948;4.706;2023-02-14T09:27:44;99.18;;;45.60;;
24145;SDS011;12308;50.948;4.706;2023-02-14T09:30:10;101.38;;;46.20;;
24145;SDS011;12308;50.948;4.706;2023-02-14T09:32:36;107.60;;;46.47;;
24145;SDS011;12308;50.948;4.706;2023-02-14T09:35:01;96.57;;;47.60;;
24145;SDS011;12308;50.948;4.706;2023-02-14T09:37:27;104.70;;;45.25;;
24145;SDS011;12308;50.948;4.706;2023-02-14T09:40:12;95.22;;;46.70;;
24145;SDS011;12308;50.948;4.706;2023-02-14T09:42:45;88.70;;;45.47;;
24145;SDS011;12308;50.948;4.706;2023-02-14T09:45:17;95.75;;;46.17;;
24145;SDS011;12308;50.948;4.706;2023-02-14T09:53:00;98.32;;;46.50;;
24145;SDS011;12308;50.948;4.706;2023-02-14T09:55:38;96.50;;;46.75;;
24145;SDS011;12308;50.948;4.706;2023-02-14T09:58:18;95.57;;;45.35;;
24145;SDS011;12308;50.948;4.706;2023-02-14T10:01:00;89.82;;;45.25;;
24145;SDS011;12308;50.948;4.706;2023-02-14T10:12:08;86.72;;;43.28;;
24145;SDS011;12308;50.948;4.706;2023-02-14T10:14:40;87.25;;;42.70;;
24145;SDS011;12308;50.948;4.706;2023-02-14T10:17:13;88.60;;;41.05;;
24145;SDS011;12308;50.948;4.706;2023-02-14T10:19:46;85.85;;;41.22;;
24145;SDS011;12308;50.948;4.706;2023-02-14T10:22:20;86.00;;;42.08;;
24145;SDS011;12308;50.948;4.706;2023-02-14T10:25:02;77.72;;;39.72;;
24145;SDS011;12308;50.948;4.706;2023-02-14T10:27:38;80.70;;;41.28;;
24145;SDS011;12308;50.948;4.706;2023-02-14T10:35:49;79.28;;;39.40;;
24145;SDS011;12308;50.948;4.706;2023-02-14T10:41:25;80.20;;;39.45;;
24145;SDS011;12308;50.948;4.706;2023-02-14T10:46:53;74.88;;;37.30;;
24145;SDS011;12308;50.948;4.706;2023-02-14T10:54:54;76.20;;;37.33;;
24145;SDS011;12308;50.948;4.706;2023-02-14T10:57:24;69.13;;;36.42;;
24145;SDS011;12308;50.948;4.706;2023-02-14T11:02:38;71.72;;;36.55;;
24145;SDS011;12308;50.948;4.706;2023-02-14T11:05:07;67.50;;;35.60;;
24145;SDS011;12308;50.948;4.706;2023-02-14T11:07:46;69.75;;;35.22;;
24145;SDS011;12308;50.948;4.706;2023-02-14T11:10:12;68.03;;;34.92;;
24145;SDS011;12308;50.948;4.706;2023-02-14T11:12:40;69.63;;;34.60;;
24145;SDS011;12308;50.948;4.706;2023-02-14T11:17:48;73.15;;;35.28;;
24145;SDS011;12308;50.948;4.706;2023-02-14T11:22:43;70.03;;;34.67;;
24145;SDS011;12308;50.948;4.706;2023-02-14T11:25:20;72.53;;;36.45;;
24145;SDS011;12308;50.948;4.706;2023-02-14T11:30:32;71.15;;;34.20;;
24145;SDS011;12308;50.948;4.706;2023-02-14T11:33:09;68.38;;;34.50;;
24145;SDS011;12308;50.948;4.706;2023-02-14T11:35:54;67.38;;;32.75;;
24145;SDS011;12308;50.948;4.706;2023-02-14T11:41:00;63.25;;;33.10;;
24145;SDS011;12308;50.948;4.706;2023-02-14T11:43:37;70.40;;;33.17;;
24145;SDS011;12308;50.948;4.706;2023-02-14T11:46:14;62.42;;;32.50;;
24145;SDS011;12308;50.948;4.706;2023-02-14T11:48:58;58.83;;;31.58;;
24145;SDS011;12308;50.948;4.706;2023-02-14T11:51:35;60.10;;;29.60;;
24145;SDS011;12308;50.948;4.706;2023-02-14T11:54:05;62.88;;;31.83;;
24145;SDS011;12308;50.948;4.706;2023-02-14T11:56:53;67.28;;;31.55;;
24145;SDS011;12308;50.948;4.706;2023-02-14T11:59:41;61.65;;;31.17;;
24145;SDS011;12308;50.948;4.706;2023-02-14T12:05:14;67.65;;;30.10;;
24145;SDS011;12308;50.948;4.706;2023-02-14T12:07:54;64.07;;;32.40;;
24145;SDS011;12308;50.948;4.706;2023-02-14T12:10:27;59.42;;;30.65;;
24145;SDS011;12308;50.948;4.706;2023-02-14T12:15:26;63.17;;;31.05;;
24145;SDS011;12308;50.948;4.706;2023-02-14T12:20:52;70.05;;;32.08;;
24145;SDS011;12308;50.948;4.706;2023-02-14T12:23:34;62.38;;;30.08;;
24145;SDS011;12308;50.948;4.706;2023-02-14T12:26:17;61.10;;;30.05;;
24145;SDS011;12308;50.948;4.706;2023-02-14T12:29:05;62.15;;;29.98;;
24145;SDS011;12308;50.948;4.706;2023-02-14T12:31:53;59.38;;;29.05;;
24145;SDS011;12308;50.948;4.706;2023-02-14T12:34:23;56.50;;;30.00;;
24145;SDS011;12308;50.948;4.706;2023-02-14T12:40:17;65.05;;;31.10;;
24145;SDS011;12308;50.948;4.706;2023-02-14T12:42:27;65.88;;;29.80;;
24145;SDS011;12308;50.948;4.706;2023-02-14T12:53:30;60.22;;;28.27;;
24145;SDS011;12308;50.948;4.706;2023-02-14T13:11:44;59.60;;;27.85;;
24145;SDS011;12308;50.948;4.706;2023-02-14T13:21:58;57.20;;;28.00;;
24145;SDS011;12308;50.948;4.706;2023-02-14T13:24:28;65.97;;;29.90;;
24145;SDS011;12308;50.948;4.706;2023-02-14T13:27:02;64.30;;;29.35;;
24145;SDS011;12308;50.948;4.706;2023-02-14T13:29:33;60.45;;;29.23;;
24145;SDS011;12308;50.948;4.706;2023-02-14T13:32:08;63.92;;;27.77;;
24145;SDS011;12308;50.948;4.706;2023-02-14T13:34:38;60.58;;;28.02;;
24145;SDS011;12308;50.948;4.706;2023-02-14T13:37:09;64.80;;;27.90;;
24145;SDS011;12308;50.948;4.706;2023-02-14T13:39:39;58.60;;;27.98;;
24145;SDS011;12308;50.948;4.706;2023-02-14T13:42:08;61.00;;;28.33;;
24145;SDS011;12308;50.948;4.706;2023-02-14T13:47:03;56.13;;;27.10;;
24145;SDS011;12308;50.948;4.706;2023-02-14T13:49:31;62.58;;;29.67;;
24145;SDS011;12308;50.948;4.706;2023-02-14T13:52:02;58.10;;;27.80;;
24145;SDS011;12308;50.948;4.706;2023-02-14T13:54:34;62.30;;;27.52;;
24145;SDS011;12308;50.948;4.706;2023-02-14T14:02:45;60.35;;;29.55;;
24145;SDS011;12308;50.948;4.706;2023-02-14T14:10:44;54.92;;;28.13;;
24145;SDS011;12308;50.948;4.706;2023-02-14T14:24:54;59.53;;;28.02;;
24145;SDS011;12308;50.948;4.706;2023-02-14T14:27:22;57.15;;;29.40;;
24145;SDS011;12308;50.948;4.706;2023-02-14T14:29:58;63.00;;;30.33;;
24145;SDS011;12308;50.948;4.706;2023-02-14T14:35:01;67.18;;;29.05;;
24145;SDS011;12308;50.948;4.706;2023-02-14T14:37:31;62.35;;;28.95;;
24145;SDS011;12308;50.948;4.706;2023-02-14T14:40:17;60.20;;;29.00;;
24145;SDS011;12308;50.948;4.706;2023-02-14T14:43:13;64.63;;;30.80;;
24145;SDS011;12308;50.948;4.706;2023-02-14T14:45:39;56.78;;;29.67;;
24145;SDS011;12308;50.948;4.706;2023-02-14T14:48:12;62.72;;;30.08;;
24145;SDS011;12308;50.948;4.706;2023-02-14T14:50:43;56.63;;;28.85;;
24145;SDS011;12308;50.948;4.706;2023-02-14T14:56:21;56.55;;;29.90;;
24145;SDS011;12308;50.948;4.706;2023-02-14T14:58:49;65.70;;;31.90;;
24145;SDS011;12308;50.948;4.706;2023-02-14T15:01:36;66.95;;;30.63;;
24145;SDS011;12308;50.948;4.706;2023-02-14T15:06:34;56.50;;;29.95;;
24145;SDS011;12308;50.948;4.706;2023-02-14T15:09:09;59.05;;;30.33;;
24145;SDS011;12308;50.948;4.706;2023-02-14T15:11:55;63.60;;;30.83;;
24145;SDS011;12308;50.948;4.706;2023-02-14T15:14:42;59.65;;;30.25;;
24145;SDS011;12308;50.948;4.706;2023-02-14T15:17:12;72.10;;;33.20;;
24145;SDS011;12308;50.948;4.706;2023-02-14T15:19:46;60.80;;;30.50;;
24145;SDS011;12308;50.948;4.706;2023-02-14T15:22:19;59.60;;;29.92;;
24145;SDS011;12308;50.948;4.706;2023-02-14T15:24:50;62.20;;;30.33;;
24145;SDS011;12308;50.948;4.706;2023-02-14T15:27:18;61.55;;;30.52;;
24145;SDS011;12308;50.948;4.706;2023-02-14T15:29:52;63.78;;;31.10;;
24145;SDS011;12308;50.948;4.706;2023-02-14T15:32:22;63.25;;;31.88;;
24145;SDS011;12308;50.948;4.706;2023-02-14T15:34:49;58.50;;;29.05;;
24145;SDS011;12308;50.948;4.706;2023-02-14T15:37:15;61.95;;;31.50;;
24145;SDS011;12308;50.948;4.706;2023-02-14T15:39:42;60.78;;;30.85;;
24145;SDS011;12308;50.948;4.706;2023-02-14T15:42:27;60.03;;;28.55;;
24145;SDS011;12308;50.948;4.706;2023-02-14T15:47:45;61.47;;;31.80;;
24145;SDS011;12308;50.948;4.706;2023-02-14T15:50:18;63.58;;;29.95;;
24145;SDS011;12308;50.948;4.706;2023-02-14T15:52:48;115.03;;;66.95;;
24145;SDS011;12308;50.948;4.706;2023-02-14T15:55:15;68.43;;;32.33;;
24145;SDS011;12308;50.948;4.706;2023-02-14T16:00:16;61.08;;;31.25;;
24145;SDS011;12308;50.948;4.706;2023-02-14T16:02:48;64.87;;;31.00;;
24145;SDS011;12308;50.948;4.706;2023-02-14T16:05:21;66.93;;;32.63;;
24145;SDS011;12308;50.948;4.706;2023-02-14T16:10:29;60.28;;;29.60;;
24145;SDS011;12308;50.948;4.706;2023-02-14T16:13:18;69.75;;;32.55;;
24145;SDS011;12308;50.948;4.706;2023-02-14T16:15:57;68.63;;;31.95;;
24145;SDS011;12308;50.948;4.706;2023-02-14T16:21:13;69.70;;;32.10;;
24145;SDS011;12308;50.948;4.706;2023-02-14T16:26:37;55.90;;;28.38;;
24145;SDS011;12308;50.948;4.706;2023-02-14T16:29:12;56.33;;;27.70;;
24145;SDS011;12308;50.948;4.706;2023-02-14T16:32:08;53.03;;;26.67;;
24145;SDS011;12308;50.948;4.706;2023-02-14T16:34:33;56.67;;;26.38;;
24145;SDS011;12308;50.948;4.706;2023-02-14T16:37:04;63.53;;;30.67;;
24145;SDS011;12308;50.948;4.706;2023-02-14T16:39:32;60.33;;;29.20;;
24145;SDS011;12308;50.948;4.706;2023-02-14T16:41:58;65.10;;;29.27;;
24145;SDS011;12308;50.948;4.706;2023-02-14T16:44:24;59.75;;;29.95;;
24145;SDS011;12308;50.948;4.706;2023-02-14T16:46:49;56.88;;;27.00;;
24145;SDS011;12308;50.948;4.706;2023-02-14T16:49:15;112.97;;;49.90;;
24145;SDS011;12308;50.948;4.706;2023-02-14T16:51:41;63.40;;;29.50;;
24145;SDS011;12308;50.948;4.706;2023-02-14T16:54:19;60.95;;;27.98;;
24145;SDS011;12308;50.948;4.706;2023-02-14T16:56:52;67.13;;;29.35;;
24145;SDS011;12308;50.948;4.706;2023-02-14T16:59:21;59.58;;;27.38;;
24145;SDS011;12308;50.948;4.706;2023-02-14T17:01:47;68.03;;;27.92;;
24145;SDS011;12308;50.948;4.706;2023-02-14T17:04:13;56.50;;;26.38;;
24145;SDS011;12308;50.948;4.706;2023-02-14T17:06:40;55.20;;;26.92;;
24145;SDS011;12308;50.948;4.706;2023-02-14T17:09:08;56.17;;;26.02;;
24145;SDS011;12308;50.948;4.706;2023-02-14T17:11:40;59.45;;;27.75;;
24145;SDS011;12308;50.948;4.706;2023-02-14T17:14:11;62.50;;;31.02;;
24145;SDS011;12308;50.948;4.706;2023-02-14T17:16:39;65.78;;;30.58;;
24145;SDS011;12308;50.948;4.706;2023-02-14T17:19:05;63.03;;;28.48;;
24145;SDS011;12308;50.948;4.706;2023-02-14T17:21:31;62.38;;;28.85;;
24145;SDS011;12308;50.948;4.706;2023-02-14T17:23:59;62.72;;;30.40;;
24145;SDS011;12308;50.948;4.706;2023-02-14T17:26:25;72.90;;;31.48;;
24145;SDS011;12308;50.948;4.706;2023-02-14T17:28:51;64.53;;;30.33;;
24145;SDS011;12308;50.948;4.706;2023-02-14T17:31:16;79.80;;;35.42;;
24145;SDS011;12308;50.948;4.706;2023-02-14T17:33:42;72.25;;;31.65;;
24145;SDS011;12308;50.948;4.706;2023-02-14T17:36:09;64.97;;;29.02;;
24145;SDS011;12308;50.948;4.706;2023-02-14T17:38:36;63.20;;;30.35;;
24145;SDS011;12308;50.948;4.706;2023-02-14T17:41:09;190.32;;;70.15;;
24145;SDS011;12308;50.948;4.706;2023-02-14T17:43:39;169.27;;;64.32;;
24145;SDS011;12308;50.948;4.706;2023-02-14T17:46:05;145.75;;;56.60;;